Time;durP1;ratioP1;P1;durP2;ratioP2;P2;SDS_P1;SDS_P2;PMS_P1;PMS_P2;Temp;Humidity;BMP_temperature;BMP_pressure;BME280_temperature;BME280_humidity;BME280_pressure;Samples;Min_cycle;Max_cycle;Signal;HPM_P1;HPM_P2
2023/08/20 00:01:13;;;;;;;4.80;2.50;;;;;;;18.76;77.69;99343.27;105213;1257;64225;-23
2023/08/20 00:03:43;;;;;;;3.10;2.70;;;;;;;19.12;77.59;99345.23;105504;1261;62529;-22
2023/08/20 00:06:12;;;;;;;5.80;3.10;;;;;;;19.56;76.19;99342.30;105268;1255;74436;-23
2023/08/20 00:08:39;;;;;;;8.30;3.50;;;;;;;19.54;75.47;99339.17;105678;1259;72345;-23
2023/08/20 00:11:08;;;;;;;7.80;3.60;;;;;;;19.33;75.74;99344.54;105657;1259;72699;-23
2023/08/20 00:13:35;;;;;;;7.90;3.90;;;;;;;19.06;76.49;99345.20;105658;1254;62814;-23
2023/08/20 00:16:04;;;;;;;7.50;3.50;;;;;;;18.78;77.14;99341.99;105646;1254;64326;-23
2023/08/20 00:18:32;;;;;;;3.30;2.40;;;;;;;18.56;78.12;99339.34;105438;1254;76902;-23
2023/08/20 00:21:05;;;;;;;8.60;2.70;;;;;;;18.92;77.79;99340.85;105559;1262;73257;-23
2023/08/20 00:23:34;;;;;;;4.40;3.00;;;;;;;19.25;76.37;99339.92;105592;1257;75202;-23
2023/08/20 00:26:02;;;;;;;5.30;3.70;;;;;;;19.24;76.36;99337.81;105564;1254;61224;-22
2023/08/20 00:28:33;;;;;;;5.80;3.90;;;;;;;19.08;76.40;99337.29;105506;1259;62578;-22
2023/08/20 00:31:01;;;;;;;6.70;3.70;;;;;;;18.85;76.40;99335.35;105366;1253;73087;-22
2023/08/20 00:33:29;;;;;;;5.00;4.00;;;;;;;18.69;77.03;99337.35;105402;1259;77343;-22
2023/08/20 00:35:56;;;;;;;4.10;2.30;;;;;;;18.55;76.92;99335.21;105362;1259;71563;-22
2023/08/20 00:38:24;;;;;;;3.00;2.70;;;;;;;18.93;75.59;99334.04;105457;1254;61076;-22
2023/08/20 00:40:52;;;;;;;4.10;3.00;;;;;;;19.33;73.71;99335.20;105323;1253;63266;-22
2023/08/20 00:43:21;;;;;;;5.30;3.80;;;;;;;19.30;74.42;99331.41;105615;1259;74398;-23
2023/08/20 00:45:48;;;;;;;4.40;3.50;;;;;;;19.15;75.80;99332.44;105376;1262;73505;-23
2023/08/20 00:48:17;;;;;;;4.30;3.60;;;;;;;18.97;76.05;99331.33;105521;1256;76683;-23
2023/08/20 00:50:45;;;;;;;8.40;3.80;;;;;;;18.77;76.22;99329.92;105594;1253;61182;-23
2023/08/20 00:53:13;;;;;;;6.40;2.80;;;;;;;18.52;76.39;99330.78;105449;1262;64293;-23
2023/08/20 00:55:42;;;;;;;3.70;3.00;;;;;;;18.84;76.64;99330.43;105305;1254;72191;-22
2023/08/20 00:58:10;;;;;;;7.80;3.10;;;;;;;19.30;75.37;99333.72;105298;1263;74473;-22
2023/08/20 01:00:38;;;;;;;5.60;3.30;;;;;;;19.34;75.29;99330.86;105461;1261;72720;-23
2023/08/20 01:03:06;;;;;;;5.60;3.30;;;;;;;19.14;74.80;99333.39;105483;1259;61150;-23
2023/08/20 01:05:38;;;;;;;5.60;3.90;;;;;;;18.92;75.12;99333.36;105541;1259;61263;-22
2023/08/20 01:08:22;;;;;;;4.50;3.50;;;;;;;18.70;75.50;99333.70;105359;1254;74144;-23
2023/08/20 01:11:00;;;;;;;6.00;2.90;;;;;;;18.50;75.85;99334.88;105492;1254;76794;-23
2023/08/20 01:13:28;;;;;;;5.70;3.00;;;;;;;18.95;76.22;99335.69;105317;1257;72786;-23
2023/08/20 01:15:56;;;;;;;4.90;3.40;;;;;;;19.35;73.60;99332.34;105319;1257;62664;-22
2023/08/20 01:18:24;;;;;;;5.60;3.50;;;;;;;19.35;73.57;99329.11;105300;1262;62337;-23
2023/08/20 01:20:58;;;;;;;4.70;4.10;;;;;;;19.18;74.53;99329.60;105660;1261;75782;-23
2023/08/20 01:23:38;;;;;;;4.60;4.00;;;;;;;18.93;75.11;99327.77;105409;1259;76659;-23
2023/08/20 01:26:40;;;;;;;7.30;4.50;;;;;;;18.65;75.14;99327.76;105471;1259;76545;-22
2023/08/20 01:29:08;;;;;;;6.30;2.80;;;;;;;18.41;76.15;99325.17;105387;1262;61129;-23
2023/08/20 01:31:36;;;;;;;6.40;3.50;;;;;;;18.91;75.51;99324.06;105475;1254;61476;-23
2023/08/20 01:34:04;;;;;;;5.10;3.60;;;;;;;19.29;74.53;99321.00;105156;1262;74416;-23
2023/08/20 01:36:31;;;;;;;4.00;3.60;;;;;;;19.22;73.93;99320.57;105391;1254;78578;-22
2023/08/20 01:38:59;;;;;;;6.70;3.50;;;;;;;18.95;73.24;99313.38;105551;1259;75199;-22
2023/08/20 01:41:27;;;;;;;6.10;3.70;;;;;;;18.58;73.19;99310.09;105460;1263;61187;-22
2023/08/20 01:43:55;;;;;;;5.10;3.90;;;;;;;18.24;75.00;99310.81;105530;1259;62303;-22
2023/08/20 01:46:23;;;;;;;9.40;4.30;;;;;;;17.99;76.04;99308.41;105547;1253;77719;-22
2023/08/20 01:48:51;;;;;;;4.00;3.00;;;;;;;17.81;76.85;99313.76;105452;1253;75800;-23
2023/08/20 01:51:19;;;;;;;6.70;3.60;;;;;;;18.24;77.35;99310.96;105339;1257;75129;-22
2023/08/20 01:53:47;;;;;;;4.60;3.50;;;;;;;18.74;76.15;99310.58;105292;1260;62266;-22
2023/08/20 01:56:15;;;;;;;5.90;3.90;;;;;;;18.75;74.54;99307.51;105487;1254;62407;-23
2023/08/20 01:58:43;;;;;;;6.30;3.30;;;;;;;18.54;74.63;99309.48;105479;1255;75241;-23
2023/08/20 02:01:11;;;;;;;4.00;3.50;;;;;;;18.27;73.99;99306.99;105511;1259;76801;-22
2023/08/20 02:03:39;;;;;;;8.80;3.60;;;;;;;17.96;73.89;99307.98;105579;1254;71461;-23
2023/08/20 02:06:07;;;;;;;8.90;4.70;;;;;;;17.67;75.92;99305.65;105630;1254;61895;-22
2023/08/20 02:08:35;;;;;;;4.80;3.60;;;;;;;17.44;77.92;99309.34;105636;1255;62774;-22
2023/08/20 02:11:04;;;;;;;4.90;3.70;;;;;;;17.82;79.80;99311.95;105450;1259;76316;-23
2023/08/20 02:13:32;;;;;;;5.30;4.30;;;;;;;18.21;78.75;99313.56;105677;1262;76772;-22
2023/08/20 02:16:04;;;;;;;7.20;5.10;;;;;;;18.20;78.51;99316.56;105343;1254;74124;-22
2023/08/20 02:18:32;;;;;;;5.50;4.80;;;;;;;18.03;79.25;99314.98;105298;1254;61513;-21
2023/08/20 02:21:02;;;;;;;6.10;4.40;;;;;;;17.83;79.03;99312.59;105544;1253;61409;-21
2023/08/20 02:23:30;;;;;;;5.90;4.50;;;;;;;17.46;80.12;99309.80;105617;1257;76320;-22
2023/08/20 02:25:58;;;;;;;3.90;3.10;;;;;;;17.27;80.76;99308.59;105671;1253;73190;-23
2023/08/20 02:28:27;;;;;;;4.50;3.40;;;;;;;17.75;81.11;99310.66;105662;1259;74515;-22
2023/08/20 02:30:57;;;;;;;4.30;3.70;;;;;;;18.27;79.73;99308.70;105639;1259;62886;-23
2023/08/20 02:33:25;;;;;;;6.40;4.40;;;;;;;18.37;78.54;99308.91;105528;1262;62274;-23
2023/08/20 02:35:53;;;;;;;5.60;4.20;;;;;;;18.20;77.24;99304.16;105641;1253;76534;-23
2023/08/20 02:38:22;;;;;;;5.10;3.40;;;;;;;17.95;76.40;99309.38;105660;1254;74329;-23
2023/08/20 02:40:50;;;;;;;7.90;4.70;;;;;;;17.67;76.36;99306.51;105657;1257;72793;-23
2023/08/20 02:43:18;;;;;;;5.80;4.00;;;;;;;17.45;78.63;99314.31;105530;1257;61733;-23
2023/08/20 02:45:45;;;;;;;5.10;3.40;;;;;;;17.78;80.32;99311.02;105466;1254;61052;-24
2023/08/20 02:48:14;;;;;;;5.20;4.30;;;;;;;18.23;78.41;99309.79;105544;1254;73891;-22
2023/08/20 02:50:41;;;;;;;4.10;3.70;;;;;;;18.29;77.31;99309.59;105694;1259;74469;-22
2023/08/20 02:53:09;;;;;;;5.40;3.50;;;;;;;18.11;76.21;99305.77;105604;1259;72730;-21
2023/08/20 02:55:37;;;;;;;5.30;3.50;;;;;;;17.85;75.94;99307.09;105607;1259;62253;-21
2023/08/20 02:58:07;;;;;;;7.70;4.00;;;;;;;17.61;76.62;99309.64;105636;1255;61117;-21
2023/08/20 03:00:36;;;;;;;3.60;2.40;;;;;;;17.43;78.14;99313.15;105641;1258;72626;-21
2023/08/20 03:03:07;;;;;;;4.80;2.20;;;;;;;17.82;76.69;99311.78;105447;1259;73283;-21
2023/08/20 03:05:36;;;;;;;10.70;3.00;;;;;;;18.21;74.14;99314.31;105277;1262;75961;-21
2023/08/20 03:08:04;;;;;;;4.50;3.30;;;;;;;18.11;74.26;99316.42;105642;1253;61492;-21
2023/08/20 03:10:32;;;;;;;4.50;3.20;;;;;;;17.84;74.56;99319.29;105671;1259;63820;-21
2023/08/20 03:13:03;;;;;;;5.50;3.70;;;;;;;17.53;76.34;99317.30;105533;1259;75126;-23
2023/08/20 03:15:32;;;;;;;6.10;4.30;;;;;;;17.25;78.45;99319.42;105277;1265;76026;-22
2023/08/20 03:18:00;;;;;;;4.00;3.00;;;;;;;17.08;78.83;99315.90;105372;1262;72987;-21
2023/08/20 03:20:28;;;;;;;3.60;3.00;;;;;;;17.46;79.32;99312.98;105595;1256;61121;-21
2023/08/20 03:22:56;;;;;;;6.60;3.90;;;;;;;17.94;77.99;99305.20;105610;1259;61119;-23
2023/08/20 03:25:25;;;;;;;6.20;4.00;;;;;;;18.03;77.58;99305.17;105415;1254;76265;-21
2023/08/20 03:27:53;;;;;;;6.90;4.00;;;;;;;17.91;77.50;99300.60;105259;1255;74475;-22
2023/08/20 03:30:21;;;;;;;7.10;4.50;;;;;;;17.74;76.67;99299.27;105577;1259;71767;-22
2023/08/20 03:32:49;;;;;;;6.90;4.30;;;;;;;17.55;77.74;99300.92;105433;1257;62558;-21
2023/08/20 03:35:17;;;;;;;4.80;3.10;;;;;;;17.46;77.85;99299.66;105580;1254;61516;-21
2023/08/20 03:37:45;;;;;;;5.40;3.20;;;;;;;18.04;77.46;99300.10;105656;1259;75232;-21
2023/08/20 03:40:14;;;;;;;5.40;3.50;;;;;;;18.72;74.98;99297.59;105599;1262;74419;-21
2023/08/20 03:42:42;;;;;;;6.70;3.60;;;;;;;18.96;73.85;99299.70;105666;1262;72716;-22
2023/08/20 03:45:10;;;;;;;6.20;3.60;;;;;;;19.02;73.45;99299.25;105527;1255;61167;-21
2023/08/20 03:47:39;;;;;;;4.80;4.30;;;;;;;18.98;73.21;99291.98;105635;1254;61011;-21
2023/08/20 03:50:08;;;;;;;5.60;4.80;;;;;;;18.88;73.23;99291.95;105432;1259;72662;-21
2023/08/20 03:52:36;;;;;;;11.20;4.70;;;;;;;18.78;73.60;99287.48;105297;1259;73291;-21
2023/08/20 03:55:05;;;;;;;4.80;2.60;;;;;;;18.72;73.78;99282.54;105476;1260;76665;-22
2023/08/20 03:57:33;;;;;;;3.60;3.10;;;;;;;19.36;73.27;99282.02;105594;1262;62346;-22
2023/08/20 04:00:03;;;;;;;3.70;3.10;;;;;;;20.01;70.96;99281.09;105637;1258;61175;-22
2023/08/20 04:02:41;;;;;;;9.10;4.40;;;;;;;20.24;70.33;99277.65;105552;1254;76052;-22
2023/08/20 04:05:09;;;;;;;4.70;3.90;;;;;;;20.39;70.17;99275.19;105562;1254;73848;-21
2023/08/20 04:07:37;;;;;;;4.50;4.00;;;;;;;20.47;69.51;99274.64;105484;1258;71750;-22
2023/08/20 04:10:07;;;;;;;6.00;5.00;;;;;;;20.50;69.41;99274.23;105636;1255;63017;-22
2023/08/20 04:12:36;;;;;;;5.60;4.50;;;;;;;20.49;69.71;99276.27;105264;1254;61501;-22
2023/08/20 04:15:04;;;;;;;6.50;5.10;;;;;;;20.50;69.63;99276.34;105592;1259;76298;-22
2023/08/20 04:17:32;;;;;;;5.10;3.90;;;;;;;20.47;70.09;99276.18;105422;1260;73303;-21
2023/08/20 04:20:01;;;;;;;7.20;4.00;;;;;;;21.13;70.04;99275.31;105636;1259;75227;-22
2023/08/20 04:22:31;;;;;;;7.70;4.50;;;;;;;21.88;66.21;99269.98;105620;1257;64006;-22
2023/08/20 04:24:59;;;;;;;7.40;5.40;;;;;;;22.21;65.76;99267.80;105648;1255;61593;-22
2023/08/20 04:27:30;;;;;;;20.90;6.10;;;;;;;22.28;65.69;99263.98;105635;1259;76513;-22
2023/08/20 04:29:58;;;;;;;18.60;5.90;;;;;;;22.39;65.48;99266.39;105646;1267;77280;-22
2023/08/20 04:32:27;;;;;;;19.70;6.80;;;;;;;22.46;65.42;99265.52;105641;1259;74593;-23
2023/08/20 04:34:56;;;;;;;16.60;6.30;;;;;;;22.44;65.55;99265.90;105650;1259;61516;-22
2023/08/20 04:37:23;;;;;;;15.00;5.80;;;;;;;22.45;65.87;99271.96;105633;1259;61138;-22
2023/08/20 04:39:51;;;;;;;6.40;5.30;;;;;;;22.45;65.82;99271.02;105601;1259;75247;-22
2023/08/20 04:42:19;;;;;;;5.90;4.70;;;;;;;22.50;65.55;99269.73;105536;1263;74431;-21
2023/08/20 04:44:48;;;;;;;6.60;4.80;;;;;;;22.48;65.85;99272.27;105607;1257;72729;-21
2023/08/20 04:47:17;;;;;;;7.70;4.80;;;;;;;22.56;66.01;99266.73;105391;1254;61054;-22
2023/08/20 04:49:45;;;;;;;5.70;5.20;;;;;;;22.60;66.11;99265.85;105633;1254;61160;-22
2023/08/20 04:52:13;;;;;;;11.50;5.70;;;;;;;22.72;65.73;99267.73;105444;1259;73352;-21
2023/08/20 04:54:41;;;;;;;4.30;3.40;;;;;;;22.90;65.81;99264.95;105619;1259;75845;-21
2023/08/20 04:57:09;;;;;;;5.40;3.70;;;;;;;23.68;65.27;99259.31;105616;1260;72653;-22
2023/08/20 04:59:37;;;;;;;8.50;6.00;;;;;;;24.65;62.91;99257.20;105573;1257;63858;-22
2023/08/20 05:02:21;;;;;;;8.00;6.30;;;;;;;25.12;60.80;99259.90;105562;1254;61450;-22
2023/08/20 05:04:55;;;;;;;11.40;6.80;;;;;;;25.32;59.71;99260.75;105667;1260;77554;-22
2023/08/20 05:07:23;;;;;;;11.80;6.50;;;;;;;25.38;59.02;99261.02;105313;1254;76871;-22
2023/08/20 05:09:51;;;;;;;8.30;6.40;;;;;;;25.39;58.80;99261.25;105591;1255;75150;-22
2023/08/20 05:12:19;;;;;;;8.50;6.10;;;;;;;25.34;58.74;99262.32;105547;1259;62886;-22
2023/08/20 05:14:47;;;;;;;10.20;6.60;;;;;;;25.39;58.51;99265.89;105691;1260;61122;-22
2023/08/20 05:17:15;;;;;;;10.30;7.40;;;;;;;25.50;58.08;99264.77;105593;1257;73859;-22
2023/08/20 05:19:44;;;;;;;8.80;7.90;;;;;;;25.60;57.13;99263.86;105600;1260;77605;-22
2023/08/20 05:22:12;;;;;;;7.60;6.30;;;;;;;25.54;56.44;99262.40;105640;1259;75272;-21
2023/08/20 05:24:39;;;;;;;7.10;5.70;;;;;;;25.44;56.73;99265.30;105702;1260;62849;-22
2023/08/20 05:27:14;;;;;;;8.00;5.10;;;;;;;25.39;56.42;99264.53;105740;1254;62751;-22
2023/08/20 05:29:42;;;;;;;6.60;5.30;;;;;;;25.35;57.31;99266.87;105484;1255;72969;-22
2023/08/20 05:32:10;;;;;;;5.80;4.90;;;;;;;25.42;57.77;99270.46;105454;1264;74410;-21
2023/08/20 05:34:38;;;;;;;7.20;5.60;;;;;;;25.55;57.64;99271.33;105451;1261;72711;-21
2023/08/20 05:44:50;;;;;;;10.80;4.50;;;;;;;26.01;55.64;99274.64;102672;1292;600302;-22
2023/08/20 05:47:21;;;;;;;7.80;4.70;;;;;;;26.01;54.72;99270.95;104840;1266;61117;-22
2023/08/20 05:49:50;;;;;;;6.20;4.90;;;;;;;25.92;55.17;99270.41;104795;1265;61522;-22
2023/08/20 05:52:18;;;;;;;6.30;5.10;;;;;;;25.89;55.15;99266.54;104805;1272;74404;-22
2023/08/20 05:54:45;;;;;;;7.30;4.50;;;;;;;25.86;54.80;99273.70;104843;1266;78381;-22
2023/08/20 05:57:14;;;;;;;6.20;4.70;;;;;;;25.83;54.99;99272.34;104815;1266;74942;-21
2023/08/20 05:59:42;;;;;;;6.50;4.40;;;;;;;25.90;54.95;99265.72;103002;1268;61292;-22
2023/08/20 06:02:10;;;;;;;7.40;4.70;;;;;;;25.90;54.23;99264.93;104855;1262;61193;-22
2023/08/20 06:04:38;;;;;;;4.90;4.20;;;;;;;25.82;54.70;99270.50;104971;1268;61182;-22
2023/08/20 06:07:05;;;;;;;5.10;4.40;;;;;;;25.76;55.04;99273.61;105637;1255;74385;-22
2023/08/20 06:09:33;;;;;;;6.20;4.40;;;;;;;25.77;55.44;99273.97;105639;1259;73258;-22
2023/08/20 06:12:01;;;;;;;5.60;4.10;;;;;;;25.81;55.89;99274.75;105556;1256;61122;-22
2023/08/20 06:14:29;;;;;;;4.90;4.40;;;;;;;25.92;55.82;99271.11;105439;1256;62792;-22
2023/08/20 06:16:57;;;;;;;5.90;4.00;;;;;;;25.99;55.56;99273.88;105566;1262;73111;-22
2023/08/20 06:19:24;;;;;;;4.80;4.30;;;;;;;26.09;55.55;99275.20;105526;1257;74452;-22
2023/08/20 06:21:52;;;;;;;4.40;3.90;;;;;;;26.31;55.02;99276.02;105502;1256;72627;-21
2023/08/20 06:24:20;;;;;;;5.50;4.20;;;;;;;26.49;54.73;99277.20;105486;1262;63311;-22
2023/08/20 06:26:48;;;;;;;9.80;4.40;;;;;;;26.63;54.62;99273.17;105480;1256;62732;-22
2023/08/20 06:29:16;;;;;;;5.80;4.30;;;;;;;26.77;54.37;99275.98;105501;1256;76236;-22
2023/08/20 06:31:44;;;;;;;6.90;5.20;;;;;;;26.92;54.14;99278.86;105476;1256;73558;-22
2023/08/20 06:34:12;;;;;;;9.80;4.90;;;;;;;27.10;53.42;99278.63;105455;1261;72706;-21
2023/08/20 06:36:40;;;;;;;5.30;4.60;;;;;;;27.28;53.67;99277.52;105468;1258;63350;-22
2023/08/20 06:39:08;;;;;;;10.40;5.40;;;;;;;27.46;52.64;99279.40;105248;1264;62312;-22
2023/08/20 06:41:36;;;;;;;9.30;5.80;;;;;;;27.60;51.87;99279.27;105270;1264;75238;-22
2023/08/20 06:44:07;;;;;;;11.70;5.90;;;;;;;27.81;51.92;99281.23;105512;1259;73204;-22
2023/08/20 06:46:35;;;;;;;6.30;4.60;;;;;;;27.99;51.62;99281.27;105535;1259;71722;-22
2023/08/20 06:49:03;;;;;;;7.40;4.60;;;;;;;28.22;51.11;99281.02;105415;1257;63959;-22
2023/08/20 06:51:31;;;;;;;5.10;4.50;;;;;;;28.41;50.47;99278.77;105265;1256;61175;-22
2023/08/20 06:53:59;;;;;;;7.40;4.30;;;;;;;28.57;50.05;99282.02;105472;1258;75999;-22
2023/08/20 06:56:27;;;;;;;7.90;4.20;;;;;;;28.67;49.44;99284.03;105152;1264;78378;-22
2023/08/20 06:58:55;;;;;;;7.80;4.10;;;;;;;28.77;49.58;99278.36;105518;1258;75206;-22
2023/08/20 07:01:22;;;;;;;5.30;4.20;;;;;;;28.70;49.07;99282.33;105271;1258;63312;-22
2023/08/20 07:03:50;;;;;;;9.90;4.90;;;;;;;28.58;48.94;99282.91;105511;1257;61203;-22
2023/08/20 07:06:18;;;;;;;9.70;4.20;;;;;;;28.66;49.52;99280.23;105488;1262;73063;-22
2023/08/20 07:08:46;;;;;;;6.70;4.40;;;;;;;28.73;49.43;99281.98;105512;1257;74557;-22
2023/08/20 07:11:14;;;;;;;7.10;4.50;;;;;;;28.85;48.44;99276.41;105448;1259;76669;-22
2023/08/20 07:13:42;;;;;;;6.20;4.30;;;;;;;28.93;47.38;99279.73;105475;1258;62548;-22
2023/08/20 07:16:09;;;;;;;6.10;4.10;;;;;;;29.08;47.43;99284.75;105229;1257;62761;-21
2023/08/20 07:18:37;;;;;;;6.30;4.20;;;;;;;29.19;47.66;99280.23;105254;1259;75509;-22
2023/08/20 07:21:07;;;;;;;6.40;4.20;;;;;;;29.27;46.89;99279.96;105288;1259;78387;-22
2023/08/20 07:23:35;;;;;;;4.60;3.40;;;;;;;29.18;46.28;99277.63;105445;1259;75191;-22
2023/08/20 07:26:04;;;;;;;7.40;3.80;;;;;;;29.13;46.49;99279.14;105621;1258;61101;-22
2023/08/20 07:31:20;;;;;;;4.70;3.70;;;;;;;29.09;45.55;99281.02;105409;1264;74464;-22
2023/08/20 07:33:49;;;;;;;4.20;3.80;;;;;;;29.04;45.79;99279.38;105335;1263;75936;-22
2023/08/20 07:36:17;;;;;;;7.70;3.20;;;;;;;29.08;44.78;99277.73;105306;1264;72735;-22
2023/08/20 07:38:45;;;;;;;7.50;3.30;;;;;;;28.96;44.56;99275.43;105487;1262;61122;-21
2023/08/20 07:41:13;;;;;;;7.90;3.50;;;;;;;29.05;43.82;99272.38;105595;1260;61334;-22
2023/08/20 07:43:41;;;;;;;4.60;3.50;;;;;;;29.21;44.16;99268.93;105323;1262;73054;-22
2023/08/20 07:53:46;;;;;;;3.60;3.30;;;;;;;29.79;42.03;99265.11;102669;1294;600354;-22
2023/08/20 07:56:14;;;;;;;8.20;3.40;;;;;;;30.01;42.26;99263.29;104918;1270;61167;-22
2023/08/20 07:58:42;;;;;;;4.60;3.50;;;;;;;30.32;42.16;99259.44;104825;1264;62213;-24
2023/08/20 08:01:10;;;;;;;7.00;3.80;;;;;;;30.54;40.57;99257.16;104909;1270;66300;-22
2023/08/20 08:03:40;;;;;;;4.40;3.30;;;;;;;30.61;40.57;99258.16;104993;1263;68355;-22
2023/08/20 08:06:08;;;;;;;3.40;2.90;;;;;;;30.58;39.93;99254.47;104457;1267;66386;-22
2023/08/20 08:08:37;;;;;;;6.70;3.80;;;;;;;30.54;39.86;99252.73;103021;1264;2799729;-22
2023/08/20 08:11:05;;;;;;;3.80;2.90;;;;;;;30.52;39.53;99250.17;104926;1261;61211;-22
2023/08/20 08:13:33;;;;;;;6.60;3.00;;;;;;;30.56;39.67;99251.59;105478;1254;65080;-22
2023/08/20 08:16:01;;;;;;;3.60;3.10;;;;;;;31.01;40.02;99251.49;105579;1257;67269;-22
2023/08/20 08:18:29;;;;;;;6.90;3.20;;;;;;;31.50;38.95;99250.11;105606;1260;66259;-22
2023/08/20 08:20:57;;;;;;;7.90;3.40;;;;;;;31.85;37.82;99249.09;105661;1260;61158;-22
2023/08/20 08:23:25;;;;;;;5.00;3.20;;;;;;;32.07;37.43;99247.91;105682;1254;61269;-22
2023/08/20 08:25:52;;;;;;;7.60;3.30;;;;;;;32.27;37.48;99250.22;105655;1260;65485;-22
2023/08/20 08:28:20;;;;;;;4.10;2.90;;;;;;;32.49;36.66;99244.95;105669;1255;65507;-22
2023/08/20 08:30:49;;;;;;;8.10;3.10;;;;;;;32.49;35.89;99241.67;105613;1260;63969;-22
2023/08/20 08:33:17;;;;;;;3.30;3.00;;;;;;;32.38;35.73;99241.37;105367;1264;61151;-22
2023/08/20 08:35:45;;;;;;;4.80;2.90;;;;;;;32.49;35.22;99237.57;105648;1261;61100;-22
2023/08/20 08:38:13;;;;;;;4.40;3.00;;;;;;;32.57;34.92;99236.14;105384;1260;65604;-22
2023/08/20 08:40:41;;;;;;;3.80;2.80;;;;;;;32.72;33.94;99238.74;105586;1260;68387;-22
2023/08/20 08:43:16;;;;;;;2.80;2.50;;;;;;;32.74;33.96;99241.66;105585;1256;65616;-22
2023/08/20 08:45:48;;;;;;;5.00;2.90;;;;;;;32.73;34.60;99240.69;105247;1256;61140;-22
2023/08/20 08:48:17;;;;;;;4.10;3.40;;;;;;;32.62;35.04;99242.24;105386;1255;61139;-22
2023/08/20 08:50:45;;;;;;;5.00;2.80;;;;;;;32.55;34.90;99244.98;105448;1262;66583;-22
2023/08/20 08:53:13;;;;;;;4.20;2.70;;;;;;;32.61;34.00;99245.15;105192;1257;67822;-22
2023/08/20 08:55:41;;;;;;;4.10;2.90;;;;;;;32.67;33.05;99246.77;105377;1256;75433;-22
2023/08/20 08:58:10;;;;;;;9.40;2.80;;;;;;;32.64;33.39;99241.27;105435;1256;61151;-22
2023/08/20 09:00:38;;;;;;;3.10;2.60;;;;;;;33.01;33.31;99234.52;105628;1260;61262;-22
2023/08/20 09:03:06;;;;;;;5.30;2.80;;;;;;;33.32;33.08;99240.04;105577;1260;65524;-22
2023/08/20 09:05:48;;;;;;;3.10;2.40;;;;;;;33.70;32.82;99243.75;105603;1257;68271;-22
2023/08/20 09:08:20;;;;;;;5.60;2.50;;;;;;;34.01;31.98;99244.48;105545;1257;65620;-22
2023/08/20 09:10:53;;;;;;;2.80;2.60;;;;;;;34.05;31.63;99244.80;105236;1264;61122;-22
2023/08/20 09:13:24;;;;;;;7.60;2.70;;;;;;;34.22;31.66;99244.39;105250;1256;61241;-22
2023/08/20 09:15:53;;;;;;;3.80;2.60;;;;;;;34.25;31.65;99242.27;105279;1257;65862;-23
2023/08/20 09:18:21;;;;;;;7.40;2.70;;;;;;;33.96;32.11;99238.49;105536;1260;68850;-22
2023/08/20 09:20:51;;;;;;;3.80;2.90;;;;;;;33.79;32.19;99243.14;105442;1256;65650;-22
2023/08/20 09:23:19;;;;;;;3.40;2.70;;;;;;;33.84;32.34;99242.52;105417;1260;61157;-22
2023/08/20 09:25:47;;;;;;;3.50;2.70;;;;;;;33.66;33.04;99243.49;105519;1256;61125;-23
2023/08/20 09:28:15;;;;;;;5.00;2.80;;;;;;;33.46;32.96;99241.59;105482;1260;65503;-23
2023/08/20 09:30:57;;;;;;;3.00;2.50;;;;;;;33.49;32.64;99244.34;105491;1257;65561;-23
2023/08/20 09:33:25;;;;;;;3.10;2.70;;;;;;;33.70;31.73;99243.38;105378;1260;63872;-23
2023/08/20 09:35:54;;;;;;;2.70;2.50;;;;;;;33.87;31.42;99243.50;105410;1257;61112;-23
2023/08/20 09:38:23;;;;;;;3.60;2.50;;;;;;;34.30;31.13;99245.42;105600;1257;61217;-23
2023/08/20 09:40:55;;;;;;;3.60;2.70;;;;;;;33.99;31.39;99245.83;105453;1257;66531;-24
2023/08/20 09:43:28;;;;;;;4.50;3.00;;;;;;;33.92;31.39;99246.19;105191;1256;65527;-23
2023/08/20 09:45:58;;;;;;;4.00;2.70;;;;;;;33.71;31.19;99242.67;105185;1257;63830;-23
2023/08/20 09:48:28;;;;;;;4.60;2.80;;;;;;;33.86;30.85;99243.66;105262;1263;61375;-23
2023/08/20 09:50:57;;;;;;;5.40;3.00;;;;;;;33.89;30.72;99244.14;105333;1257;61100;-23
2023/08/20 09:53:34;;;;;;;2.60;2.40;;;;;;;34.12;30.26;99243.80;105383;1257;64278;-22
2023/08/20 09:56:15;;;;;;;8.30;2.50;;;;;;;34.12;30.25;99237.63;105544;1257;65585;-23
2023/08/20 09:58:43;;;;;;;3.40;2.50;;;;;;;33.90;30.27;99241.60;105301;1260;62523;-23
2023/08/20 10:01:11;;;;;;;2.70;2.50;;;;;;;33.90;30.39;99245.17;105534;1261;61184;-23
2023/08/20 10:03:39;;;;;;;4.10;2.00;;;;;;;33.95;30.13;99247.15;105634;1257;61005;-23
2023/08/20 10:06:07;;;;;;;3.70;2.10;;;;;;;34.18;29.43;99245.44;105597;1260;65545;-23
2023/08/20 10:08:35;;;;;;;6.10;2.70;;;;;;;34.14;29.25;99244.38;105539;1257;64253;-23
2023/08/20 10:11:03;;;;;;;3.70;2.30;;;;;;;34.35;29.08;99238.88;105425;1257;66149;-23
2023/08/20 10:13:30;;;;;;;3.20;2.30;;;;;;;34.52;28.41;99236.73;105330;1259;61211;-23
2023/08/20 10:15:58;;;;;;;6.70;2.40;;;;;;;34.22;28.43;99235.85;105361;1256;61049;-23
2023/08/20 10:18:26;;;;;;;3.60;2.40;;;;;;;34.19;28.85;99239.55;105278;1257;66561;-24
2023/08/20 10:20:58;;;;;;;2.60;2.30;;;;;;;34.39;28.76;99236.48;105552;1256;67200;-23
2023/08/20 10:23:30;;;;;;;3.40;2.20;;;;;;;34.57;28.94;99228.48;105221;1262;66115;-23
2023/08/20 10:26:10;;;;;;;6.00;2.40;;;;;;;34.67;28.87;99224.59;105460;1257;61083;-24
2023/08/20 10:28:40;;;;;;;2.70;2.50;;;;;;;34.81;28.75;99223.35;105267;1263;61183;-24
2023/08/20 10:31:09;;;;;;;3.20;2.30;;;;;;;34.87;28.26;99224.29;105233;1256;65930;-23
2023/08/20 10:33:57;;;;;;;3.20;2.10;;;;;;;35.06;28.11;99219.16;105146;1262;67851;-23
2023/08/20 10:36:28;;;;;;;3.60;2.50;;;;;;;35.28;28.04;99215.67;105557;1260;66314;-23
2023/08/20 10:38:57;;;;;;;7.50;2.20;;;;;;;35.62;27.61;99215.39;105531;1259;61268;-26
2023/08/20 10:41:26;;;;;;;2.40;2.20;;;;;;;35.88;27.38;99211.40;105628;1256;61083;-26
2023/08/20 10:43:57;;;;;;;2.60;2.30;;;;;;;35.70;27.56;99205.08;105380;1256;62908;-23
2023/08/20 10:46:31;;;;;;;2.60;2.40;;;;;;;35.69;27.94;99204.11;105263;1264;68370;-24
2023/08/20 10:49:01;;;;;;;3.40;2.60;;;;;;;35.56;27.98;99198.88;105093;1256;64790;-23
2023/08/20 10:51:32;;;;;;;2.80;2.40;;;;;;;35.45;28.02;99196.98;105275;1256;61112;-24
2023/08/20 10:53:59;;;;;;;4.80;2.60;;;;;;;35.48;28.13;99191.23;105573;1262;61206;-25
2023/08/20 10:56:58;;;;;;;3.00;2.40;;;;;;;35.36;28.38;99192.91;105475;1257;62887;-24
2023/08/20 10:59:27;;;;;;;3.20;2.80;;;;;;;35.30;28.86;99188.43;105266;1254;66808;-23
2023/08/20 11:01:57;;;;;;;3.10;2.80;;;;;;;34.99;28.69;99189.27;105392;1262;65649;-23
2023/08/20 11:04:33;;;;;;;4.00;2.30;;;;;;;35.08;29.12;99188.73;105413;1262;61171;-23
2023/08/20 11:07:01;;;;;;;3.70;2.50;;;;;;;34.98;28.85;99185.30;105213;1255;61161;-22
2023/08/20 11:09:30;;;;;;;5.90;2.70;;;;;;;35.17;29.21;99186.66;105589;1260;74889;-22
2023/08/20 11:11:58;;;;;;;4.10;2.60;;;;;;;34.96;29.17;99181.10;105270;1254;64304;-23
2023/08/20 11:14:27;;;;;;;5.90;2.80;;;;;;;34.88;29.47;99179.21;105509;1254;65600;-22
2023/08/20 11:16:55;;;;;;;7.50;3.50;;;;;;;35.00;29.04;99176.96;105269;1256;61187;-22
2023/08/20 11:19:23;;;;;;;4.20;2.60;;;;;;;34.99;29.09;99176.75;105504;1255;61053;-23
2023/08/20 11:21:51;;;;;;;2.90;2.60;;;;;;;35.18;29.00;99175.13;105582;1254;66668;-23
2023/08/20 11:24:20;;;;;;;3.10;2.50;;;;;;;34.54;29.49;99176.30;105558;1254;67856;-22
2023/08/20 11:26:48;;;;;;;4.40;3.00;;;;;;;33.79;30.30;99175.42;105525;1257;66256;-22
2023/08/20 11:29:19;;;;;;;5.60;3.50;;;;;;;33.83;30.85;99173.59;105570;1257;61084;-23
2023/08/20 11:31:48;;;;;;;3.90;2.50;;;;;;;34.29;30.69;99166.87;105398;1254;61225;-22
2023/08/20 11:34:20;;;;;;;3.60;2.40;;;;;;;34.46;29.74;99166.51;105369;1264;67000;-22
2023/08/20 11:36:48;;;;;;;3.60;2.30;;;;;;;34.44;29.31;99167.43;105323;1263;65526;-22
2023/08/20 11:39:16;;;;;;;4.90;2.60;;;;;;;34.13;29.95;99162.42;105277;1254;65245;-22
2023/08/20 11:41:43;;;;;;;3.40;2.40;;;;;;;34.29;29.98;99157.21;105269;1254;61311;-23
2023/08/20 11:44:20;;;;;;;5.00;2.60;;;;;;;34.07;30.10;99157.39;105523;1254;61170;-22
2023/08/20 11:46:48;;;;;;;3.40;2.70;;;;;;;33.90;29.72;99155.35;105217;1254;66591;-22
2023/08/20 11:49:16;;;;;;;2.80;2.50;;;;;;;33.87;29.77;99150.28;105179;1255;67693;-22
2023/08/20 11:51:47;;;;;;;2.70;2.50;;;;;;;34.02;30.18;99148.55;105508;1261;63859;-22